This is the latest recevied weather packets stored in our database for station/object GW4003. If no packets are shown the sender has not sent any weather packets the latest 10 day(s).
| Time | Temp. | Humidity | Pressure | Rain* | Wind** | Luminosity | Snow |
|---|---|---|---|---|---|---|---|
| 1777494852 | 12.78° C | 46% | 1019.3 hPa | 0 mm | - | - | - |
| 1777494548 | 13.33° C | 43% | 1019.2 hPa | 0 mm | - | - | - |
| 1777494244 | 13.33° C | 42% | 1019 hPa | 0 mm | - | - | - |
| 1777493940 | 13.33° C | 41% | 1018.9 hPa | 0 mm | - | - | - |
| 1777493636 | 13.33° C | 41% | 1018.8 hPa | 0 mm | - | - | - |
| 1777493333 | 13.33° C | 42% | 1018.6 hPa | 0 mm | - | - | - |
| 1777493029 | 13.33° C | 42% | 1018.6 hPa | 0 mm | - | - | - |
| 1777492725 | 13.89° C | 41% | 1018.5 hPa | 0 mm | - | - | - |
| 1777492422 | 14.44° C | 41% | 1018.5 hPa | 0 mm | - | - | - |
| 1777492117 | 14.44° C | 40% | 1018.5 hPa | 0 mm | - | - | - |
| 1777491814 | 14.44° C | 41% | 1018.2 hPa | 0 mm | - | - | - |
| 1777491511 | 15° C | 40% | 1018.2 hPa | 0 mm | - | - | - |
| 1777491207 | 15° C | 41% | 1018.2 hPa | 0 mm | - | - | - |
| 1777490904 | 13.89° C | 43% | 1018.4 hPa | 0 mm | - | - | - |
| 1777490601 | 14.44° C | 42% | 1018.5 hPa | 0 mm | - | - | - |
| 1777490298 | 14.44° C | 42% | 1018.5 hPa | 0 mm | - | - | - |
| 1777489994 | 15° C | 42% | 1018.5 hPa | 0 mm | - | - | - |
| 1777489691 | 15.56° C | 41% | 1018.6 hPa | 0 mm | - | - | - |
| 1777489387 | 15° C | 42% | 1018.7 hPa | 0 mm | - | - | - |
| 1777489084 | 15° C | 42% | 1018.7 hPa | 0 mm | - | - | - |
| 1777488780 | 14.44° C | 43% | 1018.8 hPa | 0 mm | - | - | - |
| 1777488476 | 14.44° C | 41% | 1018.7 hPa | 0 mm | - | - | - |
| 1777488173 | 15° C | 40% | 1018.8 hPa | 0 mm | - | - | - |
| 1777487868 | 15° C | 43% | 1018.7 hPa | 0 mm | - | - | - |
| 1777487564 | 15° C | 44% | 1018.9 hPa | 0 mm | - | - | - |
* Rain latest hour (hover to see other rain measurements)
** Current wind speed in m/s (hover to see current wind gust speed)